Time;durP1;ratioP1;P1;durP2;ratioP2;P2;SDS_P1;SDS_P2;PMS_P1;PMS_P2;Temp;Humidity;BMP_temperature;BMP_pressure;BME280_temperature;BME280_humidity;BME280_pressure;Samples;Min_cycle;Max_cycle;Signal;HPM_P1;HPM_P2
2022/05/01 00:00:07;;;;;;;5.05;4.05;;;;;;;;;;6279020;22;20143;-63
2022/05/01 00:02:32;;;;;;;5.82;3.83;;;;;;;;;;6278641;22;20563;-62
2022/05/01 00:04:58;;;;;;;6.93;3.90;;;;;;;;;;6278612;22;20139;-62
2022/05/01 00:07:24;;;;;;;8.10;4.68;;;;;;;;;;6278581;22;20146;-63
2022/05/01 00:09:50;;;;;;;7.75;4.50;;;;;;;;;;6278309;22;20508;-63
2022/05/01 00:12:17;;;;;;;5.40;4.22;;;;;;;;;;6278458;22;20189;-63
2022/05/01 00:14:42;;;;;;;5.00;3.67;;;;;;;;;;6278565;22;20252;-63
2022/05/01 00:17:08;;;;;;;5.65;4.65;;;;;;;;;;6278608;22;20189;-62
2022/05/01 00:19:34;;;;;;;6.03;4.30;;;;;;;;;;6278516;22;20569;-63
2022/05/01 00:22:00;;;;;;;7.22;4.63;;;;;;;;;;6278475;22;20420;-61
2022/05/01 00:24:26;;;;;;;7.75;4.95;;;;;;;;;;6278664;22;20213;-62
2022/05/01 00:26:52;;;;;;;8.27;4.88;;;;;;;;;;6278907;22;20558;-62
2022/05/01 00:29:18;;;;;;;6.63;4.85;;;;;;;;;;6278857;22;20601;-62
2022/05/01 00:31:44;;;;;;;6.85;5.07;;;;;;;;;;6278491;22;20136;-62
2022/05/01 00:36:55;;;;;;;8.95;5.18;;;;;;;;;;6279940;22;20147;-62
2022/05/01 00:39:20;;;;;;;7.72;5.45;;;;;;;;;;6278958;22;20139;-61
2022/05/01 00:41:47;;;;;;;7.55;5.20;;;;;;;;;;6279947;22;20144;-63
2022/05/01 00:44:13;;;;;;;6.68;5.57;;;;;;;;;;6280913;22;20205;-63
2022/05/01 00:46:41;;;;;;;8.32;4.53;;;;;;;;;;6279726;22;20145;-63
2022/05/01 00:49:08;;;;;;;7.50;5.38;;;;;;;;;;6281392;22;20151;-63
2022/05/01 00:51:55;;;;;;;6.65;5.25;;;;;;;;;;6279860;22;20554;-62
2022/05/01 00:54:22;;;;;;;9.02;5.75;;;;;;;;;;6280791;22;20152;-63
2022/05/01 00:56:49;;;;;;;8.68;5.47;;;;;;;;;;6279678;22;20457;-63
2022/05/01 00:59:15;;;;;;;9.80;5.90;;;;;;;;;;6280919;22;20135;-62
2022/05/01 01:01:42;;;;;;;7.93;5.53;;;;;;;;;;6290147;22;20140;-62
2022/05/01 01:04:09;;;;;;;8.38;5.60;;;;;;;;;;6300830;22;20162;-62
2022/05/01 01:06:35;;;;;;;9.00;5.90;;;;;;;;;;6301175;22;20351;-63
2022/05/01 01:09:01;;;;;;;6.65;5.60;;;;;;;;;;6300508;22;20166;-61
2022/05/01 01:11:27;;;;;;;8.80;6.38;;;;;;;;;;6300010;22;20166;-62
2022/05/01 01:13:54;;;;;;;6.47;5.88;;;;;;;;;;6291123;22;20171;-62
2022/05/01 01:16:21;;;;;;;10.48;6.18;;;;;;;;;;6278260;22;20182;-63
2022/05/01 01:18:47;;;;;;;11.85;6.00;;;;;;;;;;6278682;22;20146;-62
2022/05/01 01:21:12;;;;;;;8.85;5.65;;;;;;;;;;6278300;22;20376;-62
2022/05/01 01:23:39;;;;;;;12.13;6.25;;;;;;;;;;6277866;22;20131;-63
2022/05/01 01:26:06;;;;;;;8.23;5.78;;;;;;;;;;6277751;22;20194;-62
2022/05/01 01:28:39;;;;;;;8.07;5.95;;;;;;;;;;6278090;22;20416;-63
2022/05/01 01:33:54;;;;;;;7.78;5.18;;;;;;;;;;6278124;22;20553;-62
2022/05/01 01:36:21;;;;;;;6.90;5.50;;;;;;;;;;6277483;22;20168;-63
2022/05/01 01:38:47;;;;;;;9.52;5.57;;;;;;;;;;6277937;22;20150;-62
2022/05/01 01:41:15;;;;;;;9.30;5.80;;;;;;;;;;6278057;22;20608;-62
2022/05/01 01:43:44;;;;;;;7.25;5.07;;;;;;;;;;6277890;22;20147;-62
2022/05/01 01:46:10;;;;;;;7.75;6.05;;;;;;;;;;6277665;22;20167;-62
2022/05/01 01:48:36;;;;;;;10.07;6.10;;;;;;;;;;6277547;22;20532;-62
2022/05/01 01:51:02;;;;;;;7.95;6.32;;;;;;;;;;6277422;22;20179;-62
2022/05/01 01:53:29;;;;;;;7.38;5.70;;;;;;;;;;6277817;22;20217;-63
2022/05/01 01:55:57;;;;;;;11.38;6.53;;;;;;;;;;6277369;22;20163;-62
2022/05/01 01:58:23;;;;;;;8.25;6.40;;;;;;;;;;6277954;22;20190;-63
2022/05/01 02:00:49;;;;;;;11.82;6.22;;;;;;;;;;6277766;22;20209;-62
2022/05/01 02:03:15;;;;;;;13.27;5.95;;;;;;;;;;6277419;22;20144;-62
2022/05/01 02:05:42;;;;;;;9.85;5.80;;;;;;;;;;6277520;22;20147;-62
2022/05/01 02:08:08;;;;;;;7.82;5.70;;;;;;;;;;6277400;22;20449;-62
2022/05/01 02:10:34;;;;;;;10.23;6.47;;;;;;;;;;6277561;22;20128;-62
2022/05/01 02:13:00;;;;;;;8.30;5.70;;;;;;;;;;6277647;22;20442;-62
2022/05/01 02:15:33;;;;;;;9.50;5.80;;;;;;;;;;6277189;22;20167;-62
2022/05/01 02:17:59;;;;;;;9.27;6.22;;;;;;;;;;6277692;22;20133;-62
2022/05/01 02:20:26;;;;;;;8.52;5.97;;;;;;;;;;6277454;22;20140;-62
2022/05/01 02:22:55;;;;;;;11.20;5.97;;;;;;;;;;6277588;22;20144;-62
2022/05/01 02:25:21;;;;;;;7.28;5.38;;;;;;;;;;6278039;22;20182;-63
2022/05/01 02:27:47;;;;;;;8.50;5.40;;;;;;;;;;6278788;22;20147;-63
2022/05/01 02:30:13;;;;;;;9.55;5.30;;;;;;;;;;6279144;22;20140;-63
2022/05/01 02:32:40;;;;;;;9.45;5.15;;;;;;;;;;6278315;22;20230;-63
2022/05/01 02:35:06;;;;;;;12.52;5.63;;;;;;;;;;6278369;22;20174;-63
2022/05/01 02:37:32;;;;;;;6.90;4.78;;;;;;;;;;6278605;22;20139;-63
2022/05/01 02:39:58;;;;;;;9.43;5.15;;;;;;;;;;6278642;22;20344;-63
2022/05/01 02:42:24;;;;;;;7.57;4.93;;;;;;;;;;6278927;22;20136;-63
2022/05/01 02:44:50;;;;;;;8.75;4.95;;;;;;;;;;6278859;22;20471;-63
2022/05/01 02:47:16;;;;;;;9.23;5.75;;;;;;;;;;6278630;22;20139;-64
2022/05/01 02:49:42;;;;;;;8.35;4.65;;;;;;;;;;6278607;22;20154;-63
2022/05/01 02:52:09;;;;;;;8.05;4.82;;;;;;;;;;6278539;22;20178;-63
2022/05/01 02:54:35;;;;;;;7.15;4.57;;;;;;;;;;6278793;22;20143;-64
2022/05/01 02:57:01;;;;;;;6.05;3.50;;;;;;;;;;6279212;22;20136;-64
2022/05/01 02:59:27;;;;;;;5.40;3.88;;;;;;;;;;6282175;22;20420;-63
2022/05/01 03:01:54;;;;;;;6.68;3.85;;;;;;;;;;6281513;22;20169;-63
2022/05/01 03:04:21;;;;;;;6.68;3.95;;;;;;;;;;6281305;22;20146;-62
2022/05/01 03:06:47;;;;;;;6.82;4.32;;;;;;;;;;6280428;22;20147;-62
2022/05/01 03:09:13;;;;;;;9.60;4.07;;;;;;;;;;6280680;22;20249;-63
2022/05/01 03:11:39;;;;;;;5.35;4.00;;;;;;;;;;6280812;22;20143;-63
2022/05/01 03:14:09;;;;;;;5.88;4.20;;;;;;;;;;6280698;22;20204;-64
2022/05/01 03:16:35;;;;;;;9.13;4.07;;;;;;;;;;6280975;22;20164;-63
2022/05/01 03:24:30;;;;;;;5.82;3.70;;;;;;;;;;6281028;22;20142;-64
2022/05/01 03:26:56;;;;;;;5.70;4.00;;;;;;;;;;6280903;22;20210;-64
2022/05/01 03:29:22;;;;;;;8.23;3.92;;;;;;;;;;6281153;22;20555;-63
2022/05/01 03:31:50;;;;;;;6.20;3.65;;;;;;;;;;6280507;22;20660;-64
2022/05/01 03:34:17;;;;;;;8.20;4.05;;;;;;;;;;6280953;22;20139;-64
2022/05/01 03:36:44;;;;;;;7.53;4.35;;;;;;;;;;6280755;22;20175;-63
2022/05/01 03:39:10;;;;;;;6.20;3.90;;;;;;;;;;6253865;22;20205;-63
2022/05/01 03:41:37;;;;;;;6.82;3.42;;;;;;;;;;6280962;22;20139;-63
2022/05/01 03:44:03;;;;;;;6.18;3.78;;;;;;;;;;6280630;22;20197;-63
2022/05/01 03:46:29;;;;;;;7.05;3.85;;;;;;;;;;6280299;22;20143;-63
2022/05/01 03:48:55;;;;;;;8.10;3.80;;;;;;;;;;6280648;22;20169;-63
2022/05/01 03:51:21;;;;;;;6.70;3.90;;;;;;;;;;6280612;22;20139;-63
2022/05/01 03:53:47;;;;;;;5.60;4.32;;;;;;;;;;6253665;22;20154;-63
2022/05/01 03:56:13;;;;;;;6.93;4.38;;;;;;;;;;6280639;22;20167;-63
2022/05/01 03:58:39;;;;;;;7.60;4.65;;;;;;;;;;6280109;22;20140;-63
2022/05/01 04:01:05;;;;;;;9.52;5.43;;;;;;;;;;6280444;22;20256;-63
2022/05/01 04:03:31;;;;;;;8.32;4.55;;;;;;;;;;6280762;22;20139;-63
2022/05/01 04:05:59;;;;;;;7.65;4.50;;;;;;;;;;6280845;22;20693;-64
2022/05/01 04:08:24;;;;;;;8.63;4.72;;;;;;;;;;6280749;22;20163;-64
2022/05/01 04:10:51;;;;;;;8.60;4.93;;;;;;;;;;6280282;22;20588;-64
2022/05/01 04:13:17;;;;;;;6.70;4.78;;;;;;;;;;6279866;22;20633;-63
2022/05/01 04:15:43;;;;;;;9.05;5.13;;;;;;;;;;6280723;22;20168;-63
2022/05/01 04:18:10;;;;;;;6.75;4.80;;;;;;;;;;6280810;22;20146;-63
2022/05/01 04:20:39;;;;;;;7.72;4.40;;;;;;;;;;6253615;22;20159;-63
2022/05/01 04:23:06;;;;;;;7.22;4.18;;;;;;;;;;6280324;22;20136;-63
2022/05/01 04:25:33;;;;;;;8.32;3.90;;;;;;;;;;6280380;22;20254;-64
2022/05/01 04:28:01;;;;;;;7.68;3.58;;;;;;;;;;6280364;22;20226;-62
2022/05/01 04:30:27;;;;;;;10.57;3.88;;;;;;;;;;6280384;22;20154;-62
2022/05/01 04:32:55;;;;;;;6.35;3.63;;;;;;;;;;6280091;22;20150;-63
2022/05/01 04:35:21;;;;;;;5.10;3.42;;;;;;;;;;6252773;22;20171;-63
2022/05/01 04:37:48;;;;;;;7.70;3.70;;;;;;;;;;6280052;22;20171;-64
2022/05/01 04:40:14;;;;;;;6.38;3.10;;;;;;;;;;6280043;22;20142;-63
2022/05/01 04:42:41;;;;;;;6.00;3.30;;;;;;;;;;6280053;22;20197;-63
2022/05/01 04:45:07;;;;;;;10.55;3.95;;;;;;;;;;6279652;22;20186;-63
2022/05/01 04:47:33;;;;;;;6.50;3.38;;;;;;;;;;6279729;22;20143;-63
2022/05/01 04:49:59;;;;;;;6.97;3.53;;;;;;;;;;6279633;22;20144;-64
2022/05/01 04:52:25;;;;;;;6.63;3.58;;;;;;;;;;6279181;22;20376;-63
2022/05/01 04:54:51;;;;;;;7.85;3.53;;;;;;;;;;6279653;22;20171;-64
2022/05/01 04:57:17;;;;;;;6.90;3.40;;;;;;;;;;6279175;22;20613;-63
2022/05/01 04:59:44;;;;;;;5.15;3.15;;;;;;;;;;6279654;22;20245;-63
2022/05/01 05:02:10;;;;;;;6.82;3.40;;;;;;;;;;6280399;22;20226;-64
2022/05/01 05:04:36;;;;;;;6.53;3.47;;;;;;;;;;6280930;22;20278;-63
2022/05/01 05:07:02;;;;;;;7.15;3.60;;;;;;;;;;6279991;22;20150;-64
2022/05/01 05:12:13;;;;;;;5.75;3.30;;;;;;;;;;6280015;22;20143;-64
2022/05/01 05:14:39;;;;;;;4.95;2.85;;;;;;;;;;6279795;22;20225;-64
2022/05/01 05:17:06;;;;;;;6.43;3.85;;;;;;;;;;6280196;22;20143;-63
2022/05/01 05:19:34;;;;;;;6.85;3.42;;;;;;;;;;6279971;22;20171;-63
2022/05/01 05:22:00;;;;;;;9.70;3.70;;;;;;;;;;6280063;22;20420;-63
2022/05/01 05:24:26;;;;;;;7.88;3.35;;;;;;;;;;6279869;22;20539;-64
2022/05/01 05:26:52;;;;;;;7.30;3.40;;;;;;;;;;6279973;22;20150;-64
2022/05/01 05:29:18;;;;;;;9.77;3.95;;;;;;;;;;6279717;22;20171;-63
2022/05/01 05:31:43;;;;;;;6.43;3.40;;;;;;;;;;6279849;22;20143;-63
2022/05/01 05:34:09;;;;;;;8.15;3.45;;;;;;;;;;6279646;22;20491;-64
2022/05/01 05:36:35;;;;;;;6.78;3.28;;;;;;;;;;6279349;22;20163;-64
2022/05/01 05:39:01;;;;;;;6.93;4.03;;;;;;;;;;6279689;22;20225;-64
2022/05/01 05:41:27;;;;;;;4.65;3.20;;;;;;;;;;6279776;22;20624;-64
2022/05/01 05:43:53;;;;;;;7.38;3.72;;;;;;;;;;6279786;22;20140;-64
2022/05/01 05:46:19;;;;;;;4.40;3.53;;;;;;;;;;6279568;22;20144;-64
2022/05/01 05:48:45;;;;;;;8.68;3.55;;;;;;;;;;6279134;22;20540;-64
2022/05/01 05:51:11;;;;;;;7.72;3.60;;;;;;;;;;6279174;22;20158;-63
2022/05/01 05:53:37;;;;;;;7.35;3.15;;;;;;;;;;6252105;22;20493;-64
2022/05/01 05:56:03;;;;;;;7.70;3.50;;;;;;;;;;6279199;22;20605;-64
2022/05/01 05:58:28;;;;;;;8.35;3.38;;;;;;;;;;6279560;22;20136;-64
2022/05/01 06:00:54;;;;;;;6.10;3.42;;;;;;;;;;6279219;22;20167;-64
2022/05/01 06:03:20;;;;;;;10.10;3.80;;;;;;;;;;6279483;22;20139;-63
2022/05/01 06:05:46;;;;;;;8.80;3.63;;;;;;;;;;6279070;22;20143;-63
2022/05/01 06:08:13;;;;;;;5.50;3.28;;;;;;;;;;6278945;22;20155;-63
2022/05/01 06:10:39;;;;;;;5.65;3.45;;;;;;;;;;6279137;22;20153;-63
2022/05/01 06:13:05;;;;;;;6.60;3.50;;;;;;;;;;6278965;22;20139;-63
2022/05/01 06:15:31;;;;;;;5.30;3.17;;;;;;;;;;6278796;22;20163;-63
2022/05/01 06:17:57;;;;;;;6.60;3.70;;;;;;;;;;6279292;22;20140;-63
2022/05/01 06:20:23;;;;;;;8.15;3.50;;;;;;;;;;6279242;22;20234;-63
2022/05/01 06:22:53;;;;;;;8.00;3.67;;;;;;;;;;6279173;22;20511;-63
2022/05/01 06:25:19;;;;;;;5.78;3.65;;;;;;;;;;6278377;22;20640;-63
2022/05/01 06:27:45;;;;;;;7.57;3.40;;;;;;;;;;6278743;22;20143;-63
2022/05/01 06:30:11;;;;;;;4.97;3.15;;;;;;;;;;6278665;22;20235;-63
2022/05/01 06:32:38;;;;;;;5.38;3.40;;;;;;;;;;6278601;22;20143;-63
2022/05/01 06:35:05;;;;;;;9.32;3.45;;;;;;;;;;6278706;22;20167;-63
2022/05/01 06:37:31;;;;;;;5.97;3.50;;;;;;;;;;6278473;22;20523;-64
2022/05/01 06:39:57;;;;;;;5.57;3.47;;;;;;;;;;6278648;22;20548;-64
2022/05/01 06:42:23;;;;;;;6.47;3.75;;;;;;;;;;6279233;22;20209;-63
2022/05/01 06:44:48;;;;;;;7.05;3.45;;;;;;;;;;6278577;22;20147;-64
2022/05/01 06:47:14;;;;;;;6.60;3.42;;;;;;;;;;6278630;22;20547;-64
2022/05/01 06:49:40;;;;;;;8.35;4.15;;;;;;;;;;6278467;22;20139;-63
2022/05/01 06:52:06;;;;;;;6.32;3.38;;;;;;;;;;6278803;22;20136;-63
2022/05/01 06:54:32;;;;;;;7.68;3.20;;;;;;;;;;6278304;22;20154;-63
2022/05/01 06:56:58;;;;;;;7.43;3.97;;;;;;;;;;6278235;22;20179;-64
2022/05/01 06:59:24;;;;;;;8.93;3.80;;;;;;;;;;6278256;22;20551;-63
2022/05/01 07:01:50;;;;;;;7.03;3.83;;;;;;;;;;6278590;22;20163;-63
2022/05/01 07:04:16;;;;;;;8.07;4.95;;;;;;;;;;6278336;22;20442;-63
2022/05/01 07:06:43;;;;;;;5.65;3.50;;;;;;;;;;6278573;22;20146;-63
2022/05/01 07:09:09;;;;;;;5.82;3.38;;;;;;;;;;6278045;22;20170;-64
2022/05/01 07:11:35;;;;;;;6.22;3.60;;;;;;;;;;6278729;22;20144;-63
2022/05/01 07:14:01;;;;;;;6.22;3.45;;;;;;;;;;6278366;22;20595;-63
2022/05/01 07:16:27;;;;;;;6.25;3.42;;;;;;;;;;6278401;22;20181;-63
2022/05/01 07:18:53;;;;;;;5.57;3.20;;;;;;;;;;6278287;22;20483;-63
2022/05/01 07:21:19;;;;;;;5.60;3.60;;;;;;;;;;6278465;22;20189;-63
2022/05/01 07:23:44;;;;;;;9.48;3.42;;;;;;;;;;6278054;22;20543;-63
2022/05/01 07:26:11;;;;;;;6.35;3.85;;;;;;;;;;6277348;22;20166;-63
2022/05/01 07:28:36;;;;;;;7.00;3.25;;;;;;;;;;6277549;22;20570;-63
2022/05/01 07:31:04;;;;;;;6.07;3.13;;;;;;;;;;6277188;22;20140;-63
2022/05/01 07:33:30;;;;;;;4.57;3.00;;;;;;;;;;6277480;22;20143;-63
2022/05/01 07:35:57;;;;;;;7.78;3.50;;;;;;;;;;6277374;22;20163;-63
2022/05/01 07:38:23;;;;;;;4.80;3.42;;;;;;;;;;6277844;22;20139;-63
2022/05/01 07:40:49;;;;;;;9.52;3.20;;;;;;;;;;6277272;22;20191;-63
2022/05/01 07:43:15;;;;;;;4.95;3.40;;;;;;;;;;6277601;22;20139;-63
2022/05/01 07:45:42;;;;;;;7.05;3.05;;;;;;;;;;6294807;22;20195;-63
2022/05/01 07:48:08;;;;;;;6.68;3.20;;;;;;;;;;6282636;22;20158;-64
2022/05/01 07:50:34;;;;;;;5.93;3.05;;;;;;;;;;6280023;22;20140;-63
2022/05/01 07:53:00;;;;;;;5.90;2.80;;;;;;;;;;6280383;22;20143;-63
2022/05/01 07:55:26;;;;;;;7.07;2.80;;;;;;;;;;6279624;22;20649;-63
2022/05/01 07:57:52;;;;;;;5.57;2.65;;;;;;;;;;6279726;22;20144;-63
2022/05/01 08:00:18;;;;;;;5.63;2.85;;;;;;;;;;6279990;22;20139;-63
2022/05/01 08:05:29;;;;;;;5.70;3.10;;;;;;;;;;6280119;22;20147;-62
2022/05/01 08:07:55;;;;;;;7.25;3.00;;;;;;;;;;6279729;22;20163;-64
2022/05/01 08:10:21;;;;;;;5.15;2.90;;;;;;;;;;6280237;22;20135;-62
2022/05/01 08:12:47;;;;;;;4.65;3.10;;;;;;;;;;6279670;22;20575;-62
2022/05/01 08:15:17;;;;;;;5.07;2.80;;;;;;;;;;6279625;22;20298;-63
2022/05/01 08:17:43;;;;;;;4.05;2.80;;;;;;;;;;6280546;22;20135;-63
2022/05/01 08:22:54;;;;;;;4.97;3.40;;;;;;;;;;6281241;22;20170;-64
2022/05/01 08:25:20;;;;;;;4.70;2.83;;;;;;;;;;6280434;22;20143;-64
2022/05/01 08:27:46;;;;;;;6.72;2.80;;;;;;;;;;6281230;22;20201;-64
2022/05/01 08:30:12;;;;;;;5.43;3.08;;;;;;;;;;6280461;22;20163;-64
2022/05/01 08:32:38;;;;;;;6.07;3.33;;;;;;;;;;6280868;22;20178;-64
2022/05/01 08:35:04;;;;;;;5.68;2.90;;;;;;;;;;6280825;22;20167;-64
2022/05/01 08:37:30;;;;;;;4.07;2.80;;;;;;;;;;6280625;22;20143;-64
2022/05/01 08:39:56;;;;;;;5.65;3.05;;;;;;;;;;6281313;22;20486;-64
2022/05/01 08:42:22;;;;;;;5.85;2.92;;;;;;;;;;6281166;22;20146;-64
2022/05/01 08:44:48;;;;;;;6.03;3.00;;;;;;;;;;6280560;22;20569;-64
2022/05/01 08:47:17;;;;;;;6.47;3.28;;;;;;;;;;6281387;22;20218;-64
2022/05/01 08:49:45;;;;;;;8.80;3.35;;;;;;;;;;6264237;22;20449;-64
2022/05/01 08:52:12;;;;;;;5.72;3.10;;;;;;;;;;6284225;22;20155;-64
2022/05/01 08:54:38;;;;;;;3.97;3.13;;;;;;;;;;6279377;22;20223;-64
2022/05/01 08:57:04;;;;;;;3.97;2.88;;;;;;;;;;6279770;22;20167;-64
2022/05/01 08:59:31;;;;;;;3.50;2.95;;;;;;;;;;6279460;22;20502;-64
2022/05/01 09:01:58;;;;;;;4.68;2.72;;;;;;;;;;6280326;22;20209;-64
2022/05/01 09:04:25;;;;;;;5.18;2.92;;;;;;;;;;6279728;22;20169;-64
2022/05/01 09:06:50;;;;;;;3.33;2.70;;;;;;;;;;6279321;22;20143;-64
2022/05/01 09:09:17;;;;;;;4.43;2.80;;;;;;;;;;6279670;22;20162;-64
2022/05/01 09:14:28;;;;;;;6.22;2.88;;;;;;;;;;6279002;22;20569;-64
2022/05/01 09:17:10;;;;;;;5.20;2.55;;;;;;;;;;6278492;22;20248;-63
2022/05/01 09:19:36;;;;;;;4.90;2.47;;;;;;;;;;6279312;22;20163;-64
2022/05/01 09:22:02;;;;;;;6.68;2.85;;;;;;;;;;6279218;22;20150;-64
2022/05/01 09:24:29;;;;;;;4.30;2.83;;;;;;;;;;6278713;22;20538;-65
2022/05/01 09:26:55;;;;;;;4.20;2.70;;;;;;;;;;6279130;22;20443;-63
2022/05/01 09:29:22;;;;;;;3.92;2.65;;;;;;;;;;6278868;22;20152;-65
2022/05/01 09:31:50;;;;;;;3.67;2.70;;;;;;;;;;6279352;22;20376;-64
2022/05/01 09:34:20;;;;;;;4.18;2.50;;;;;;;;;;6278824;22;20153;-65
2022/05/01 09:36:46;;;;;;;4.68;2.53;;;;;;;;;;6278591;22;20171;-64
2022/05/01 09:39:18;;;;;;;3.53;2.47;;;;;;;;;;6278491;22;20139;-64
2022/05/01 09:41:44;;;;;;;4.15;2.58;;;;;;;;;;6278830;22;20120;-64
2022/05/01 09:44:13;;;;;;;4.75;2.90;;;;;;;;;;6278189;22;20158;-64
2022/05/01 09:46:39;;;;;;;3.15;2.40;;;;;;;;;;6278574;22;20157;-64
2022/05/01 09:49:13;;;;;;;3.92;2.75;;;;;;;;;;6278944;22;20239;-65
2022/05/01 09:51:41;;;;;;;4.40;2.78;;;;;;;;;;6278461;22;20554;-64
2022/05/01 09:54:07;;;;;;;3.97;2.35;;;;;;;;;;6278763;22;20703;-64
2022/05/01 09:56:46;;;;;;;4.35;2.70;;;;;;;;;;6278300;22;20177;-65
2022/05/01 09:59:13;;;;;;;3.22;2.92;;;;;;;;;;6278433;22;20162;-65
2022/05/01 10:01:40;;;;;;;4.60;3.03;;;;;;;;;;6278077;22;20136;-64
2022/05/01 10:04:06;;;;;;;4.18;2.80;;;;;;;;;;6278905;22;20143;-65
2022/05/01 10:06:33;;;;;;;3.72;2.70;;;;;;;;;;6278115;22;20150;-64
2022/05/01 10:09:01;;;;;;;4.32;2.45;;;;;;;;;;6278011;22;20606;-64
2022/05/01 10:11:29;;;;;;;4.20;2.40;;;;;;;;;;6278398;22;20204;-64
2022/05/01 10:13:56;;;;;;;3.58;2.05;;;;;;;;;;6278873;22;20147;-63
2022/05/01 10:16:21;;;;;;;7.22;2.50;;;;;;;;;;6277643;22;20586;-63
2022/05/01 10:18:47;;;;;;;5.22;2.63;;;;;;;;;;6278754;22;20218;-63
2022/05/01 10:21:13;;;;;;;3.00;2.20;;;;;;;;;;6277912;22;20142;-64
2022/05/01 10:23:40;;;;;;;3.70;2.30;;;;;;;;;;6278567;22;20140;-63
2022/05/01 10:26:14;;;;;;;4.80;2.53;;;;;;;;;;6277957;22;20555;-64
2022/05/01 10:28:54;;;;;;;2.72;2.13;;;;;;;;;;6277580;22;20141;-64
2022/05/01 10:34:43;;;;;;;3.90;2.50;;;;;;;;;;6277649;22;20188;-65
2022/05/01 10:37:28;;;;;;;3.45;2.20;;;;;;;;;;6278063;22;20151;-64
2022/05/01 10:39:54;;;;;;;2.88;2.25;;;;;;;;;;6278016;22;20132;-64
2022/05/01 10:42:38;;;;;;;2.65;1.90;;;;;;;;;;6277689;22;20142;-64
2022/05/01 10:45:25;;;;;;;2.80;2.03;;;;;;;;;;6278248;22;20226;-64
2022/05/01 10:47:52;;;;;;;3.50;2.05;;;;;;;;;;6277522;22;20165;-64
2022/05/01 10:50:21;;;;;;;2.53;2.00;;;;;;;;;;6277616;22;20539;-64
2022/05/01 10:53:05;;;;;;;2.50;2.00;;;;;;;;;;6277258;22;20163;-64
2022/05/01 10:55:43;;;;;;;3.22;1.75;;;;;;;;;;6277069;22;20163;-64
2022/05/01 10:58:30;;;;;;;2.83;2.50;;;;;;;;;;6276948;22;20652;-64
2022/05/01 11:00:56;;;;;;;2.22;2.00;;;;;;;;;;6277541;22;20138;-64
2022/05/01 11:03:23;;;;;;;2.72;2.00;;;;;;;;;;6277455;22;20411;-64
2022/05/01 11:05:54;;;;;;;2.97;2.35;;;;;;;;;;6277495;22;20143;-63
2022/05/01 11:08:23;;;;;;;3.20;1.85;;;;;;;;;;6277247;22;20162;-64
2022/05/01 11:10:51;;;;;;;4.07;2.25;;;;;;;;;;6277255;22;20140;-64
2022/05/01 11:13:17;;;;;;;2.28;1.98;;;;;;;;;;6277068;22;20200;-64
2022/05/01 11:15:49;;;;;;;2.90;2.30;;;;;;;;;;6277137;22;20167;-64
2022/05/01 11:18:15;;;;;;;2.78;1.90;;;;;;;;;;6277273;22;20170;-64
2022/05/01 11:20:43;;;;;;;4.20;1.85;;;;;;;;;;6279124;22;20526;-64
2022/05/01 11:23:30;;;;;;;3.55;2.22;;;;;;;;;;6279684;22;20571;-64
2022/05/01 11:26:09;;;;;;;2.35;1.73;;;;;;;;;;6259671;22;20143;-64
2022/05/01 11:28:42;;;;;;;3.10;2.15;;;;;;;;;;6279119;22;20138;-64
2022/05/01 11:31:27;;;;;;;3.40;2.40;;;;;;;;;;6278696;22;20139;-64
2022/05/01 11:34:19;;;;;;;3.85;2.42;;;;;;;;;;6279001;22;20562;-64
2022/05/01 11:37:04;;;;;;;2.78;1.80;;;;;;;;;;6233384;22;20189;-64
2022/05/01 11:39:46;;;;;;;2.35;2.00;;;;;;;;;;6278957;22;20220;-64
2022/05/01 11:42:25;;;;;;;2.22;1.83;;;;;;;;;;6278697;22;20147;-64
2022/05/01 11:44:51;;;;;;;3.03;1.80;;;;;;;;;;6279342;22;20143;-64
2022/05/01 11:47:21;;;;;;;3.83;2.15;;;;;;;;;;6279274;22;20143;-64
2022/05/01 11:49:47;;;;;;;4.68;2.47;;;;;;;;;;6278992;22;20563;-64
2022/05/01 11:52:14;;;;;;;2.67;1.95;;;;;;;;;;6279298;22;20224;-64
2022/05/01 11:54:41;;;;;;;4.28;1.85;;;;;;;;;;6278864;22;20562;-64
2022/05/01 12:02:58;;;;;;;3.80;2.30;;;;;;;;;;6185588;23;20235;-64
2022/05/01 12:05:25;;;;;;;2.63;2.00;;;;;;;;;;6261940;22;20181;-65
2022/05/01 12:07:55;;;;;;;2.10;1.90;;;;;;;;;;6278496;22;20652;-64
2022/05/01 12:10:21;;;;;;;4.03;2.20;;;;;;;;;;6278717;22;20132;-65
2022/05/01 12:12:47;;;;;;;3.78;1.98;;;;;;;;;;6278712;22;20222;-64
2022/05/01 12:15:13;;;;;;;3.03;2.15;;;;;;;;;;6278432;22;20175;-64
2022/05/01 12:17:40;;;;;;;2.80;2.00;;;;;;;;;;6278264;22;20581;-64
2022/05/01 12:20:06;;;;;;;2.75;2.00;;;;;;;;;;6278112;22;20149;-64
2022/05/01 12:22:37;;;;;;;2.70;2.03;;;;;;;;;;6278420;22;20158;-65
2022/05/01 12:25:04;;;;;;;2.67;1.85;;;;;;;;;;6278508;22;20143;-63
2022/05/01 12:27:30;;;;;;;2.63;1.63;;;;;;;;;;6279087;22;20225;-64
2022/05/01 12:29:56;;;;;;;2.53;1.75;;;;;;;;;;6278359;22;20543;-64
2022/05/01 12:32:22;;;;;;;2.08;1.90;;;;;;;;;;6279000;22;20625;-64
2022/05/01 12:34:48;;;;;;;1.80;1.60;;;;;;;;;;6278379;22;20159;-64
2022/05/01 12:37:15;;;;;;;4.18;2.00;;;;;;;;;;6278490;22;20146;-63
2022/05/01 12:39:42;;;;;;;2.03;1.73;;;;;;;;;;6277895;22;20215;-64
2022/05/01 12:45:06;;;;;;;2.97;1.92;;;;;;;;;;6278218;22;20490;-65
2022/05/01 12:47:37;;;;;;;2.65;1.55;;;;;;;;;;6278101;22;20142;-63
2022/05/01 12:50:04;;;;;;;2.55;1.77;;;;;;;;;;6278250;22;20203;-64
2022/05/01 12:52:33;;;;;;;3.28;2.10;;;;;;;;;;6278059;22;20143;-64
2022/05/01 12:55:15;;;;;;;2.80;1.98;;;;;;;;;;6277829;22;20135;-64
2022/05/01 12:57:43;;;;;;;2.15;2.00;;;;;;;;;;6278478;22;20190;-63
2022/05/01 13:00:09;;;;;;;2.03;1.83;;;;;;;;;;6278429;22;20201;-64
2022/05/01 13:02:35;;;;;;;1.92;1.60;;;;;;;;;;6278375;22;20562;-64
2022/05/01 13:05:04;;;;;;;2.20;1.60;;;;;;;;;;6278064;22;20135;-64
2022/05/01 13:07:31;;;;;;;2.15;1.95;;;;;;;;;;6278137;22;20226;-63
2022/05/01 13:09:57;;;;;;;3.05;1.77;;;;;;;;;;6277790;22;20139;-64
2022/05/01 13:12:30;;;;;;;2.85;1.75;;;;;;;;;;6277988;22;20227;-64
2022/05/01 13:14:58;;;;;;;2.60;1.60;;;;;;;;;;6277514;22;20146;-65
2022/05/01 13:17:27;;;;;;;1.90;1.70;;;;;;;;;;6278231;22;20135;-64
2022/05/01 13:19:53;;;;;;;2.38;1.65;;;;;;;;;;6278032;22;20190;-64
2022/05/01 13:22:19;;;;;;;1.65;1.42;;;;;;;;;;6277751;22;20135;-64
2022/05/01 13:24:46;;;;;;;2.22;1.80;;;;;;;;;;6277415;22;20201;-64
2022/05/01 13:27:12;;;;;;;2.55;1.63;;;;;;;;;;6277836;22;20155;-63
2022/05/01 13:29:40;;;;;;;3.22;1.50;;;;;;;;;;6277835;22;20147;-65
2022/05/01 13:32:07;;;;;;;2.63;1.42;;;;;;;;;;6277602;22;20140;-64
2022/05/01 13:34:34;;;;;;;2.25;1.80;;;;;;;;;;6277538;22;20158;-64
2022/05/01 13:37:00;;;;;;;2.67;1.73;;;;;;;;;;6278018;22;20193;-64
2022/05/01 13:44:56;;;;;;;2.08;1.50;;;;;;;;;;6277685;22;20433;-64
2022/05/01 13:47:22;;;;;;;2.08;1.50;;;;;;;;;;6278772;22;20139;-64
2022/05/01 13:49:48;;;;;;;1.75;1.50;;;;;;;;;;6279265;22;20150;-63
2022/05/01 13:52:14;;;;;;;2.92;1.40;;;;;;;;;;6278747;22;20166;-63
2022/05/01 13:54:41;;;;;;;1.90;1.50;;;;;;;;;;6279397;22;20167;-63
2022/05/01 13:57:07;;;;;;;3.38;1.60;;;;;;;;;;6279493;22;20240;-63
2022/05/01 13:59:33;;;;;;;1.42;1.30;;;;;;;;;;6278895;22;20543;-64
2022/05/01 14:01:59;;;;;;;2.25;1.20;;;;;;;;;;6278966;22;20209;-63
2022/05/01 14:04:26;;;;;;;1.52;1.40;;;;;;;;;;6251983;22;20147;-64
2022/05/01 14:06:52;;;;;;;2.53;1.40;;;;;;;;;;6279026;22;20559;-63
2022/05/01 14:09:18;;;;;;;4.00;1.58;;;;;;;;;;6278840;22;20166;-63
2022/05/01 14:11:45;;;;;;;4.10;1.75;;;;;;;;;;6278951;22;20143;-63
2022/05/01 14:14:11;;;;;;;2.22;1.50;;;;;;;;;;6278478;22;20466;-63
2022/05/01 14:16:39;;;;;;;1.80;1.60;;;;;;;;;;6278495;22;20597;-63
2022/05/01 14:19:06;;;;;;;1.80;1.42;;;;;;;;;;6278987;22;20143;-64
2022/05/01 14:21:32;;;;;;;2.65;1.90;;;;;;;;;;6278891;22;20139;-64
2022/05/01 14:23:58;;;;;;;2.45;1.80;;;;;;;;;;6279068;22;20162;-64
2022/05/01 14:26:24;;;;;;;2.80;2.25;;;;;;;;;;6279050;22;20232;-63
2022/05/01 14:28:50;;;;;;;2.92;2.00;;;;;;;;;;6278976;22;20551;-63
2022/05/01 14:31:24;;;;;;;2.97;2.35;;;;;;;;;;6278580;22;20150;-63
2022/05/01 14:33:56;;;;;;;3.15;2.00;;;;;;;;;;6278812;22;20426;-64
2022/05/01 14:36:23;;;;;;;3.85;2.00;;;;;;;;;;6278550;22;20155;-63
2022/05/01 14:38:54;;;;;;;4.22;2.17;;;;;;;;;;6279501;22;20145;-64
2022/05/01 14:41:30;;;;;;;2.67;2.08;;;;;;;;;;6278818;22;20123;-63
2022/05/01 14:43:59;;;;;;;2.95;2.00;;;;;;;;;;6279054;22;20127;-63
2022/05/01 14:46:26;;;;;;;1.92;1.70;;;;;;;;;;6278423;22;20147;-63
2022/05/01 14:48:58;;;;;;;2.08;1.88;;;;;;;;;;6277773;22;20143;-63
2022/05/01 14:51:26;;;;;;;2.00;1.70;;;;;;;;;;6278505;22;20131;-64
2022/05/01 14:53:55;;;;;;;2.00;1.70;;;;;;;;;;6278114;22;20143;-62
2022/05/01 14:56:22;;;;;;;2.28;1.75;;;;;;;;;;6278752;22;20177;-63
2022/05/01 15:07:03;;;;;;;2.72;2.30;;;;;;;;;;6278636;22;20146;-63
2022/05/01 15:09:30;;;;;;;4.40;2.80;;;;;;;;;;6278093;22;20563;-64
2022/05/01 15:11:56;;;;;;;3.15;2.05;;;;;;;;;;6277202;22;20213;-63
2022/05/01 15:14:24;;;;;;;4.07;2.63;;;;;;;;;;6276794;22;20239;-64
2022/05/01 15:16:57;;;;;;;2.60;2.20;;;;;;;;;;6276594;22;20466;-64
2022/05/01 15:19:29;;;;;;;2.50;2.28;;;;;;;;;;6276764;22;20394;-64
2022/05/01 15:22:23;;;;;;;3.55;2.38;;;;;;;;;;6277073;22;20472;-64
2022/05/01 15:24:59;;;;;;;3.38;2.22;;;;;;;;;;6277222;22;20146;-64
2022/05/01 15:27:28;;;;;;;2.80;2.20;;;;;;;;;;6277783;22;20149;-64
2022/05/01 15:29:56;;;;;;;2.80;2.53;;;;;;;;;;6277676;22;20190;-64
2022/05/01 15:32:29;;;;;;;2.60;2.40;;;;;;;;;;6277604;22;20148;-63